createdAt,value
2023-11-09T00:01:49.966Z,4.83
2023-11-09T00:04:18.020Z,3.70
2023-11-09T00:06:46.067Z,2.83
2023-11-09T00:09:16.377Z,3.47
2023-11-09T00:11:47.964Z,3.97
2023-11-09T00:14:17.397Z,3.30
2023-11-09T00:16:47.448Z,3.30
2023-11-09T00:19:15.909Z,3.10
2023-11-09T00:21:45.253Z,3.47
2023-11-09T00:24:13.358Z,2.53
2023-11-09T00:26:46.564Z,3.20
2023-11-09T00:29:14.887Z,3.17
2023-11-09T00:31:43.195Z,3.10
2023-11-09T00:34:12.132Z,2.50
2023-11-09T00:36:40.276Z,3.40
2023-11-09T00:39:10.388Z,3.33
2023-11-09T00:41:38.423Z,2.30
2023-11-09T00:44:08.129Z,2.60
2023-11-09T00:46:36.143Z,3.00
2023-11-09T00:49:04.986Z,2.87
2023-11-09T00:51:33.073Z,2.43
2023-11-09T00:54:01.061Z,3.57
2023-11-09T00:56:29.181Z,4.43
2023-11-09T00:58:57.236Z,2.33
2023-11-09T01:01:26.659Z,2.43
2023-11-09T01:03:54.730Z,3.30
2023-11-09T01:06:22.745Z,3.10
2023-11-09T01:08:51.063Z,3.03
2023-11-09T01:11:23.818Z,2.93
2023-11-09T01:13:53.410Z,2.70
2023-11-09T01:16:21.478Z,2.80
2023-11-09T01:18:51.498Z,4.03
2023-11-09T01:21:19.621Z,2.83
2023-11-09T01:23:47.647Z,2.63
2023-11-09T01:26:15.790Z,2.93
2023-11-09T01:28:43.769Z,2.97
2023-11-09T01:31:11.845Z,3.30
2023-11-09T01:33:40.138Z,2.47
2023-11-09T01:36:09.878Z,2.40
2023-11-09T01:38:37.872Z,3.70
2023-11-09T01:41:07.593Z,3.63
2023-11-09T01:43:35.746Z,2.83
2023-11-09T01:46:06.063Z,3.10
2023-11-09T01:48:36.333Z,3.30
2023-11-09T01:51:04.939Z,2.57
2023-11-09T01:53:34.486Z,2.70
2023-11-09T01:56:02.716Z,4.40
2023-11-09T01:58:30.949Z,6.80
2023-11-09T02:01:02.382Z,2.70
2023-11-09T02:03:31.173Z,7.20
2023-11-09T02:05:59.600Z,7.63
2023-11-09T02:08:28.177Z,3.13
2023-11-09T02:10:57.519Z,4.50
2023-11-09T02:13:25.646Z,3.13
2023-11-09T02:15:55.703Z,2.77
2023-11-09T02:18:23.784Z,2.93
2023-11-09T02:20:53.574Z,2.83
2023-11-09T02:23:22.820Z,2.70
2023-11-09T02:25:52.266Z,3.70
2023-11-09T02:28:21.369Z,2.50
2023-11-09T02:30:49.404Z,2.43
2023-11-09T02:33:17.956Z,2.20
2023-11-09T02:35:46.433Z,2.80
2023-11-09T02:38:14.517Z,2.30
2023-11-09T02:40:42.760Z,2.03
2023-11-09T02:43:12.198Z,2.53
2023-11-09T02:45:40.282Z,2.50
2023-11-09T02:48:08.625Z,2.63
2023-11-09T02:50:36.661Z,2.60
2023-11-09T02:53:04.687Z,3.17
2023-11-09T02:55:32.757Z,1.97
2023-11-09T02:58:00.774Z,2.47
2023-11-09T03:00:30.295Z,2.10
2023-11-09T03:02:58.320Z,2.40
2023-11-09T03:05:27.726Z,2.37
2023-11-09T03:07:56.319Z,2.33
2023-11-09T03:10:24.429Z,2.23
2023-11-09T03:12:52.430Z,2.73
2023-11-09T03:15:21.048Z,2.97
2023-11-09T03:17:50.780Z,2.70
2023-11-09T03:20:18.869Z,2.40
2023-11-09T03:22:47.098Z,2.90
2023-11-09T03:25:15.182Z,2.10
2023-11-09T03:27:43.313Z,2.70
2023-11-09T03:30:12.994Z,3.13
2023-11-09T03:32:41.028Z,2.40
2023-11-09T03:35:10.858Z,2.40
2023-11-09T03:37:38.848Z,2.60
2023-11-09T03:40:09.504Z,2.50
2023-11-09T03:42:37.560Z,4.53
2023-11-09T03:45:06.271Z,3.07
2023-11-09T03:47:34.354Z,2.17
2023-11-09T03:50:02.484Z,2.07
2023-11-09T03:52:31.985Z,2.00
2023-11-09T03:55:00.005Z,2.07
2023-11-09T03:57:29.205Z,2.00
2023-11-09T03:59:57.554Z,2.07
2023-11-09T04:02:25.584Z,1.47
2023-11-09T04:04:53.594Z,1.73
2023-11-09T04:07:21.687Z,2.07
2023-11-09T04:09:51.070Z,2.13
2023-11-09T04:12:19.097Z,2.10
2023-11-09T04:14:47.096Z,4.17
2023-11-09T04:17:15.102Z,1.90
2023-11-09T04:19:43.968Z,2.03
2023-11-09T04:22:12.093Z,1.80
2023-11-09T04:24:40.075Z,2.73
2023-11-09T04:27:09.794Z,2.03
2023-11-09T04:29:37.777Z,2.30
2023-11-09T04:32:06.477Z,2.50
2023-11-09T04:34:36.072Z,2.80
2023-11-09T04:37:04.687Z,2.93
2023-11-09T04:39:33.981Z,2.97
2023-11-09T04:42:05.612Z,3.47
2023-11-09T04:44:37.762Z,3.00
2023-11-09T04:47:11.695Z,3.13
2023-11-09T04:49:46.489Z,3.00
2023-11-09T04:52:17.563Z,2.60
2023-11-09T04:54:58.158Z,2.80
2023-11-09T04:57:46.997Z,2.67
2023-11-09T05:00:34.669Z,4.03
2023-11-09T05:03:20.452Z,3.33
2023-11-09T05:06:08.810Z,3.03
2023-11-09T05:08:37.197Z,3.03
2023-11-09T05:11:05.512Z,3.50
2023-11-09T05:13:33.502Z,3.63
2023-11-09T05:16:04.213Z,9.80
2023-11-09T05:18:32.311Z,5.03
2023-11-09T05:21:00.823Z,5.67
2023-11-09T05:23:28.787Z,5.17
2023-11-09T05:25:56.805Z,9.10
2023-11-09T05:28:24.923Z,9.30
2023-11-09T05:30:53.056Z,3.60
2023-11-09T05:33:24.425Z,3.37
2023-11-09T05:35:52.501Z,4.17
2023-11-09T05:38:23.242Z,3.87
2023-11-09T05:40:51.352Z,3.93
2023-11-09T05:43:19.407Z,4.27
2023-11-09T05:45:47.430Z,3.47
2023-11-09T05:48:17.793Z,7.13
2023-11-09T05:50:47.233Z,6.73
2023-11-09T05:53:15.238Z,3.50
2023-11-09T05:55:43.345Z,3.73
2023-11-09T05:58:11.856Z,3.43
2023-11-09T06:00:41.225Z,4.60
2023-11-09T06:03:09.797Z,5.10
2023-11-09T06:05:39.644Z,3.33
2023-11-09T06:08:13.125Z,5.93
2023-11-09T06:10:41.175Z,3.60
2023-11-09T06:13:09.216Z,4.17
2023-11-09T06:15:37.242Z,4.13
2023-11-09T06:18:06.046Z,5.87
2023-11-09T06:20:34.141Z,4.77
2023-11-09T06:23:02.231Z,4.47
2023-11-09T06:25:31.617Z,3.23
2023-11-09T06:27:59.715Z,3.77
2023-11-09T06:30:28.569Z,2.90
2023-11-09T06:32:56.672Z,5.30
2023-11-09T06:35:24.703Z,3.20
2023-11-09T06:37:52.717Z,3.10
2023-11-09T06:40:20.953Z,3.73
2023-11-09T06:42:51.169Z,2.50
2023-11-09T06:45:19.495Z,2.93
2023-11-09T06:47:47.718Z,3.00
2023-11-09T06:50:20.212Z,2.90
2023-11-09T06:52:49.378Z,2.97
2023-11-09T06:55:17.547Z,2.83
2023-11-09T06:57:47.124Z,3.17
2023-11-09T07:00:18.222Z,2.80
2023-11-09T07:02:48.434Z,2.60
2023-11-09T07:05:17.325Z,2.83
2023-11-09T07:07:45.535Z,2.73
2023-11-09T07:10:16.879Z,2.80
2023-11-09T07:12:44.980Z,3.03
2023-11-09T07:15:14.199Z,2.50
2023-11-09T07:17:44.682Z,2.60
2023-11-09T07:20:13.385Z,2.40
2023-11-09T07:22:41.434Z,2.60
2023-11-09T07:25:14.014Z,2.67
2023-11-09T07:27:42.501Z,2.40
2023-11-09T07:30:11.581Z,2.40
2023-11-09T07:32:39.658Z,1.90
2023-11-09T07:35:10.692Z,2.30
2023-11-09T07:37:39.879Z,2.70
2023-11-09T07:40:11.217Z,2.37
2023-11-09T07:42:39.587Z,2.00
2023-11-09T07:45:11.875Z,2.30
2023-11-09T07:47:40.032Z,1.90
2023-11-09T07:50:10.755Z,2.20
2023-11-09T07:52:39.033Z,1.97
2023-11-09T07:55:08.858Z,1.60
2023-11-09T07:57:37.143Z,1.40
2023-11-09T08:00:06.437Z,1.80
2023-11-09T08:02:34.848Z,1.77
2023-11-09T08:05:04.011Z,1.80
2023-11-09T08:07:33.422Z,2.13
2023-11-09T08:10:01.474Z,1.70
2023-11-09T08:12:29.533Z,1.93
2023-11-09T08:14:57.841Z,1.50
2023-11-09T08:17:30.994Z,1.37
2023-11-09T08:19:59.897Z,1.53
2023-11-09T08:22:28.018Z,1.70
2023-11-09T08:24:58.496Z,1.80
2023-11-09T08:27:26.806Z,1.60
2023-11-09T08:29:54.806Z,1.80
2023-11-09T08:32:23.006Z,1.77
2023-11-09T08:34:53.060Z,1.70
2023-11-09T08:37:20.442Z,1.80
2023-11-09T08:39:49.655Z,1.73
2023-11-09T08:42:20.692Z,1.80
2023-11-09T08:44:48.717Z,1.83
2023-11-09T08:47:17.214Z,1.70
2023-11-09T08:49:45.238Z,1.83
2023-11-09T08:52:13.644Z,1.80
2023-11-09T08:54:43.032Z,1.70
2023-11-09T08:57:12.450Z,2.07
2023-11-09T08:59:41.870Z,1.97
2023-11-09T09:02:10.705Z,2.10
2023-11-09T09:04:38.885Z,2.20
2023-11-09T09:07:07.067Z,2.47
2023-11-09T09:09:41.774Z,2.50
2023-11-09T09:12:16.291Z,2.70
2023-11-09T09:14:47.428Z,3.27
2023-11-09T09:17:16.988Z,3.00
2023-11-09T09:19:45.365Z,3.30
2023-11-09T09:22:14.843Z,3.30
2023-11-09T09:24:42.909Z,3.67
2023-11-09T09:27:10.999Z,3.70
2023-11-09T09:29:38.980Z,3.77
2023-11-09T09:32:09.412Z,3.97
2023-11-09T09:34:37.512Z,4.20
2023-11-09T09:37:11.800Z,4.50
2023-11-09T09:39:40.807Z,4.70
2023-11-09T09:42:09.650Z,4.47
2023-11-09T09:44:39.955Z,5.20
2023-11-09T09:47:10.790Z,5.17
2023-11-09T09:49:39.889Z,5.43
2023-11-09T09:52:08.728Z,5.63
2023-11-09T09:54:36.922Z,6.20
2023-11-09T09:57:05.036Z,6.40
2023-11-09T09:59:35.328Z,5.87
2023-11-09T10:02:07.291Z,6.63
2023-11-09T10:04:38.855Z,6.10
2023-11-09T10:07:07.210Z,6.40
2023-11-09T10:09:35.205Z,6.27
2023-11-09T10:12:07.851Z,6.13
2023-11-09T10:14:37.221Z,7.00
2023-11-09T10:17:08.361Z,6.80
2023-11-09T10:19:45.050Z,6.97
2023-11-09T10:22:13.950Z,6.20
2023-11-09T10:24:42.207Z,6.97
2023-11-09T10:27:11.076Z,7.73
2023-11-09T10:29:39.923Z,7.10
2023-11-09T10:32:20.532Z,7.53
2023-11-09T10:34:52.216Z,7.97
2023-11-09T10:37:21.156Z,7.90
2023-11-09T10:39:54.187Z,8.70
2023-11-09T10:42:25.755Z,8.10
2023-11-09T10:44:57.101Z,7.87
2023-11-09T10:47:26.303Z,8.37
2023-11-09T10:49:56.482Z,8.33
2023-11-09T10:52:26.156Z,7.53
2023-11-09T10:54:57.044Z,8.87
2023-11-09T10:57:27.895Z,7.47
2023-11-09T10:59:56.746Z,6.30
2023-11-09T11:02:28.706Z,6.90
2023-11-09T11:05:04.723Z,6.33
2023-11-09T11:07:40.490Z,6.60
2023-11-09T11:10:14.908Z,6.10
2023-11-09T11:12:45.696Z,6.00
2023-11-09T11:15:18.068Z,6.03
2023-11-09T11:18:06.251Z,7.37
2023-11-09T11:20:52.487Z,6.93
2023-11-09T11:23:51.649Z,7.77
2023-11-09T11:26:22.251Z,7.53
2023-11-09T11:28:50.359Z,8.13
2023-11-09T11:31:21.500Z,8.43
2023-11-09T11:33:50.757Z,8.97
2023-11-09T11:36:28.226Z,9.83
2023-11-09T11:39:22.105Z,9.33
2023-11-09T11:41:51.453Z,10.40
2023-11-09T11:44:22.427Z,10.07
2023-11-09T11:46:54.922Z,10.10
2023-11-09T11:49:25.066Z,9.40
2023-11-09T11:51:59.685Z,9.90
2023-11-09T11:54:30.416Z,10.53
2023-11-09T11:56:58.431Z,10.13
2023-11-09T11:59:26.488Z,10.93
2023-11-09T12:01:56.249Z,9.20
2023-11-09T12:04:24.954Z,10.07
2023-11-09T12:06:56.268Z,9.83
2023-11-09T12:09:26.100Z,10.23
2023-11-09T12:11:56.653Z,9.77
2023-11-09T12:14:26.224Z,9.00
2023-11-09T12:16:55.644Z,9.07
2023-11-09T12:19:24.128Z,9.90
2023-11-09T12:21:52.820Z,9.43
2023-11-09T12:24:23.880Z,4.70
2023-11-09T12:27:07.446Z,3.80
2023-11-09T12:29:39.063Z,4.97
2023-11-09T12:32:08.753Z,4.23
2023-11-09T12:34:39.300Z,3.90
2023-11-09T12:37:13.263Z,8.57
2023-11-09T12:39:46.899Z,7.77
2023-11-09T12:42:24.619Z,8.70
2023-11-09T12:44:54.785Z,3.97
2023-11-09T12:47:23.247Z,5.50
2023-11-09T12:49:54.439Z,5.47
2023-11-09T12:52:28.102Z,9.40
2023-11-09T12:54:57.377Z,4.00
2023-11-09T12:57:30.575Z,6.37
2023-11-09T12:59:58.645Z,4.43
2023-11-09T13:02:35.588Z,4.27
2023-11-09T13:05:04.344Z,5.93
2023-11-09T13:07:32.458Z,3.80
2023-11-09T13:10:14.525Z,4.67
2023-11-09T13:12:46.563Z,4.77
2023-11-09T13:15:32.512Z,6.93
2023-11-09T13:18:06.849Z,7.33
2023-11-09T13:20:38.269Z,7.20
2023-11-09T13:23:09.059Z,10.27
2023-11-09T13:25:40.466Z,5.37
2023-11-09T13:28:11.592Z,3.10
2023-11-09T13:30:52.990Z,6.97
2023-11-09T13:33:35.032Z,6.43
2023-11-09T13:36:05.909Z,5.63
2023-11-09T13:38:42.310Z,6.63
2023-11-09T13:41:18.505Z,11.27
2023-11-09T13:44:01.540Z,9.93
2023-11-09T13:46:39.474Z,12.27
2023-11-09T13:49:21.109Z,6.57
2023-11-09T13:52:10.566Z,9.20
2023-11-09T13:54:49.018Z,8.50
2023-11-09T13:57:24.104Z,7.67
2023-11-09T13:59:57.064Z,9.77
2023-11-09T14:02:30.567Z,8.67
2023-11-09T14:05:08.891Z,9.43
2023-11-09T14:07:41.046Z,10.73
2023-11-09T14:10:14.250Z,10.37
2023-11-09T14:12:52.283Z,12.80
2023-11-09T14:15:27.470Z,10.30
2023-11-09T14:17:58.401Z,12.00
2023-11-09T14:20:53.728Z,11.67
2023-11-09T14:23:25.061Z,9.40
2023-11-09T14:25:53.714Z,11.57
2023-11-09T14:28:22.819Z,8.20
2023-11-09T14:30:53.350Z,8.83
2023-11-09T14:33:25.362Z,7.53
2023-11-09T14:35:53.674Z,8.77
2023-11-09T14:38:23.693Z,7.63
2023-11-09T14:40:52.405Z,8.23
2023-11-09T14:43:21.152Z,6.63
2023-11-09T14:45:50.440Z,7.67
2023-11-09T14:48:23.904Z,9.70
2023-11-09T14:50:54.768Z,6.50
2023-11-09T14:53:33.617Z,9.03
2023-11-09T14:56:07.005Z,10.33
2023-11-09T14:58:35.695Z,10.53
2023-11-09T15:01:05.141Z,11.57
2023-11-09T15:03:35.788Z,8.87
2023-11-09T15:06:11.669Z,7.83
2023-11-09T15:08:40.832Z,6.17
2023-11-09T15:11:14.112Z,5.80
2023-11-09T15:13:45.951Z,10.13
2023-11-09T15:16:20.910Z,9.50
2023-11-09T15:18:51.854Z,6.23
2023-11-09T15:21:22.449Z,6.07
2023-11-09T15:23:50.916Z,6.77
2023-11-09T15:26:19.590Z,9.60
2023-11-09T15:28:49.140Z,7.37
2023-11-09T15:31:17.371Z,5.73
2023-11-09T15:33:46.071Z,7.37
2023-11-09T15:36:15.499Z,8.47
2023-11-09T15:38:43.505Z,7.37
2023-11-09T15:41:21.892Z,7.27
2023-11-09T15:43:54.619Z,8.63
2023-11-09T15:46:23.279Z,9.17
2023-11-09T15:48:51.331Z,9.70
2023-11-09T15:51:30.646Z,9.73
2023-11-09T15:54:00.217Z,6.27
2023-11-09T15:56:28.381Z,7.57
2023-11-09T15:58:57.439Z,7.20
2023-11-09T16:01:25.620Z,8.00
2023-11-09T16:03:55.068Z,9.87
2023-11-09T16:06:24.702Z,9.10
2023-11-09T16:08:52.842Z,11.37
2023-11-09T16:11:22.277Z,12.23
2023-11-09T16:13:51.629Z,7.73
2023-11-09T16:16:20.269Z,7.87
2023-11-09T16:18:48.427Z,8.17
2023-11-09T16:21:17.640Z,8.27
2023-11-09T16:23:48.111Z,9.27
2023-11-09T16:26:18.998Z,8.87
2023-11-09T16:28:49.894Z,8.40
2023-11-09T16:31:19.323Z,9.20
2023-11-09T16:33:48.014Z,5.43
2023-11-09T16:36:16.518Z,8.53
2023-11-09T16:38:46.034Z,10.93
2023-11-09T16:41:14.322Z,9.87
2023-11-09T16:43:44.203Z,10.37
2023-11-09T16:46:16.520Z,9.90
2023-11-09T16:48:44.888Z,9.17
2023-11-09T16:51:14.572Z,8.00
2023-11-09T16:53:43.900Z,9.07
2023-11-09T16:56:13.598Z,11.73
2023-11-09T16:58:41.673Z,8.97
2023-11-09T17:01:10.004Z,7.57
2023-11-09T17:03:38.248Z,8.43
2023-11-09T17:06:07.615Z,10.00
2023-11-09T17:08:37.970Z,9.47
2023-11-09T17:11:06.220Z,9.03
2023-11-09T17:13:35.669Z,9.57
2023-11-09T17:16:04.144Z,7.73
2023-11-09T17:18:32.549Z,9.50
2023-11-09T17:21:02.607Z,6.63
2023-11-09T17:23:31.876Z,9.97
2023-11-09T17:26:01.417Z,9.20
2023-11-09T17:28:32.195Z,11.93
2023-11-09T17:31:01.673Z,12.70
2023-11-09T17:33:29.862Z,10.10
2023-11-09T17:35:58.049Z,10.50
2023-11-09T17:38:27.192Z,7.00
2023-11-09T17:40:55.587Z,8.33
2023-11-09T17:43:23.746Z,9.23
2023-11-09T17:45:51.794Z,9.47
2023-11-09T17:48:21.289Z,10.27
2023-11-09T17:50:49.363Z,7.37
2023-11-09T17:53:20.820Z,9.73
2023-11-09T17:55:48.976Z,8.37
2023-11-09T17:58:17.638Z,8.00
2023-11-09T18:00:45.902Z,6.77
2023-11-09T18:03:17.014Z,12.10
2023-11-09T18:05:46.680Z,9.20
2023-11-09T18:08:16.986Z,10.10
2023-11-09T18:10:45.285Z,8.57
2023-11-09T18:13:13.634Z,9.13
2023-11-09T18:15:48.024Z,11.07
2023-11-09T18:18:16.075Z,9.60
2023-11-09T18:20:44.728Z,10.67
2023-11-09T18:23:14.145Z,10.37
2023-11-09T18:25:42.177Z,8.63
2023-11-09T18:28:10.264Z,8.60
2023-11-09T18:30:39.889Z,10.73
2023-11-09T18:33:08.113Z,11.73
2023-11-09T18:35:36.294Z,11.03
2023-11-09T18:38:04.305Z,10.67
2023-11-09T18:40:33.843Z,9.43
2023-11-09T18:43:02.237Z,9.17
2023-11-09T18:45:30.289Z,9.53
2023-11-09T18:47:58.396Z,11.17
2023-11-09T18:52:57.335Z,9.37
2023-11-09T18:55:25.764Z,12.40
2023-11-09T18:57:55.355Z,11.70
2023-11-09T19:00:23.735Z,11.30
2023-11-09T19:05:23.182Z,11.87
2023-11-09T19:07:51.294Z,13.10
2023-11-09T19:10:19.596Z,13.77
2023-11-09T19:12:50.252Z,12.80
2023-11-09T19:15:21.833Z,12.57
2023-11-09T19:17:49.943Z,20.40
2023-11-09T19:20:18.026Z,20.53
2023-11-09T19:22:51.790Z,16.83
2023-11-09T19:25:20.045Z,12.87
2023-11-09T19:27:48.082Z,19.40
2023-11-09T19:30:20.704Z,19.13
2023-11-09T19:32:50.295Z,16.30
2023-11-09T19:35:18.354Z,14.53
2023-11-09T19:37:46.411Z,12.40
2023-11-09T19:40:14.538Z,12.23
2023-11-09T19:42:42.807Z,12.43
2023-11-09T19:45:11.983Z,15.37
2023-11-09T19:47:42.229Z,12.27
2023-11-09T19:50:13.188Z,12.20
2023-11-09T19:52:41.210Z,12.33
2023-11-09T19:55:10.038Z,12.90
2023-11-09T19:57:38.205Z,12.97
2023-11-09T20:00:10.342Z,12.20
2023-11-09T20:02:38.527Z,12.83
2023-11-09T20:05:07.483Z,14.77
2023-11-09T20:07:37.056Z,12.47
2023-11-09T20:10:07.111Z,14.27
2023-11-09T20:12:36.651Z,11.93
2023-11-09T20:15:05.126Z,13.17
2023-11-09T20:17:33.277Z,13.03
2023-11-09T20:20:02.844Z,14.50
2023-11-09T20:22:31.322Z,12.93
2023-11-09T20:25:01.023Z,14.90
2023-11-09T20:27:29.299Z,13.90
2023-11-09T20:29:57.336Z,13.63
2023-11-09T20:32:25.766Z,13.73
2023-11-09T20:34:53.851Z,16.23
2023-11-09T20:37:21.918Z,12.47
2023-11-09T20:39:51.074Z,12.97
2023-11-09T20:42:20.456Z,13.83
2023-11-09T20:44:48.491Z,18.10
2023-11-09T20:47:18.533Z,13.67
2023-11-09T20:49:46.596Z,13.97
2023-11-09T20:52:14.631Z,11.77
2023-11-09T20:54:46.226Z,12.77
2023-11-09T20:57:15.654Z,12.03
2023-11-09T20:59:45.295Z,13.30
2023-11-09T21:02:14.358Z,13.73
2023-11-09T21:04:42.527Z,12.27
2023-11-09T21:07:10.623Z,14.37
2023-11-09T21:09:40.844Z,16.37
2023-11-09T21:12:09.478Z,13.67
2023-11-09T21:14:38.297Z,15.13
2023-11-09T21:17:09.713Z,14.50
2023-11-09T21:19:40.759Z,11.23
2023-11-09T21:22:13.777Z,10.57
2023-11-09T21:24:41.959Z,12.03
2023-11-09T21:27:13.565Z,12.33
2023-11-09T21:29:42.017Z,10.90
2023-11-09T21:32:11.506Z,12.23
2023-11-09T21:34:41.871Z,10.07
2023-11-09T21:37:13.502Z,9.10
2023-11-09T21:39:45.010Z,9.83
2023-11-09T21:42:13.422Z,11.30
2023-11-09T21:44:42.986Z,9.97
2023-11-09T21:47:13.268Z,7.57
2023-11-09T21:49:41.815Z,8.50
2023-11-09T21:52:09.905Z,9.50
2023-11-09T21:54:37.994Z,10.70
2023-11-09T21:57:06.514Z,8.43
2023-11-09T21:59:36.223Z,6.20
2023-11-09T22:02:04.648Z,8.10
2023-11-09T22:04:34.853Z,9.60
2023-11-09T22:07:02.946Z,7.67
2023-11-09T22:09:31.130Z,6.77
2023-11-09T22:11:59.796Z,7.83
2023-11-09T22:14:28.542Z,5.87
2023-11-09T22:16:58.517Z,7.83
2023-11-09T22:19:26.829Z,6.10
2023-11-09T22:21:56.240Z,9.67
2023-11-09T22:24:25.178Z,8.03
2023-11-09T22:26:53.592Z,7.30
2023-11-09T22:29:21.564Z,5.50
2023-11-09T22:31:49.574Z,6.63
2023-11-09T22:34:18.264Z,7.00
2023-11-09T22:36:46.354Z,8.20
2023-11-09T22:39:15.829Z,6.87
2023-11-09T22:41:43.852Z,6.63
2023-11-09T22:44:11.855Z,6.87
2023-11-09T22:46:42.522Z,7.50
2023-11-09T22:49:11.527Z,6.07
2023-11-09T22:51:39.686Z,5.73
2023-11-09T22:54:08.219Z,5.03
2023-11-09T22:56:37.616Z,5.20
2023-11-09T22:59:05.733Z,7.63
2023-11-09T23:01:33.752Z,6.87
2023-11-09T23:04:01.795Z,4.40
2023-11-09T23:06:30.422Z,8.23
2023-11-09T23:08:59.936Z,6.27
2023-11-09T23:11:28.217Z,5.07
2023-11-09T23:13:58.782Z,8.90
2023-11-09T23:16:27.868Z,5.43
2023-11-09T23:18:57.087Z,5.93
2023-11-09T23:21:25.205Z,5.57
2023-11-09T23:23:53.776Z,4.37
2023-11-09T23:26:21.903Z,6.57
2023-11-09T23:28:49.896Z,4.33
2023-11-09T23:31:19.438Z,8.60
2023-11-09T23:33:47.468Z,8.30
2023-11-09T23:36:15.859Z,6.07
2023-11-09T23:38:45.050Z,5.57
2023-11-09T23:41:14.444Z,6.87
2023-11-09T23:43:42.595Z,6.03
2023-11-09T23:46:10.745Z,6.30
2023-11-09T23:48:40.201Z,5.30
2023-11-09T23:51:08.676Z,6.73
2023-11-09T23:53:38.650Z,7.53
2023-11-09T23:56:08.076Z,6.10
2023-11-09T23:58:36.126Z,6.63
